sensor_id;sensor_type;location;lat;lon;timestamp;pressure;altitude;pressure_sealevel;temperature;humidity
76853;BME280;65825;52.232;10.566;2024-01-30T00:02:24;102004.53;;;8.17;66.44
76853;BME280;65825;52.232;10.566;2024-01-30T00:04:50;101999.31;;;8.35;65.53
76853;BME280;65825;52.232;10.566;2024-01-30T00:07:15;102001.94;;;8.26;66.42
76853;BME280;65825;52.232;10.566;2024-01-30T00:09:41;101994.88;;;8.62;64.99
76853;BME280;65825;52.232;10.566;2024-01-30T00:12:06;101988.59;;;8.90;64.12
76853;BME280;65825;52.232;10.566;2024-01-30T00:14:31;101996.56;;;8.80;63.59
76853;BME280;65825;52.232;10.566;2024-01-30T00:16:57;102000.03;;;8.86;62.99
76853;BME280;65825;52.232;10.566;2024-01-30T00:19:22;101999.13;;;8.92;62.34
76853;BME280;65825;52.232;10.566;2024-01-30T00:21:47;101991.25;;;8.90;62.46
76853;BME280;65825;52.232;10.566;2024-01-30T00:24:12;101990.41;;;8.78;62.52
76853;BME280;65825;52.232;10.566;2024-01-30T00:26:38;101984.28;;;8.76;61.82
76853;BME280;65825;52.232;10.566;2024-01-30T00:29:03;101969.44;;;8.48;62.29
76853;BME280;65825;52.232;10.566;2024-01-30T00:31:28;101978.22;;;8.56;61.41
76853;BME280;65825;52.232;10.566;2024-01-30T00:33:54;101981.72;;;8.64;62.19
76853;BME280;65825;52.232;10.566;2024-01-30T00:36:19;101995.81;;;8.39;62.37
76853;BME280;65825;52.232;10.566;2024-01-30T00:38:45;101982.63;;;8.36;61.73
76853;BME280;65825;52.232;10.566;2024-01-30T00:41:10;101973.91;;;8.13;62.86
76853;BME280;65825;52.232;10.566;2024-01-30T00:43:36;101979.16;;;8.13;63.17
76853;BME280;65825;52.232;10.566;2024-01-30T00:46:01;101972.16;;;8.10;63.79
76853;BME280;65825;52.232;10.566;2024-01-30T00:48:26;101983.53;;;7.88;64.39
76853;BME280;65825;52.232;10.566;2024-01-30T00:50:52;101983.56;;;7.87;65.51
76853;BME280;65825;52.232;10.566;2024-01-30T00:53:17;101962.50;;;7.78;65.59
76853;BME280;65825;52.232;10.566;2024-01-30T00:55:43;101982.66;;;7.92;65.46
76853;BME280;65825;52.232;10.566;2024-01-30T00:58:08;101986.19;;;8.00;64.00
76853;BME280;65825;52.232;10.566;2024-01-30T01:00:33;101983.53;;;7.99;63.93
76853;BME280;65825;52.232;10.566;2024-01-30T01:02:59;101988.75;;;7.48;67.82
76853;BME280;65825;52.232;10.566;2024-01-30T01:05:25;101982.66;;;7.47;66.69
76853;BME280;65825;52.232;10.566;2024-01-30T01:07:50;101980.00;;;7.50;67.62
76853;BME280;65825;52.232;10.566;2024-01-30T01:10:19;101997.50;;;7.44;67.98
76853;BME280;65825;52.232;10.566;2024-01-30T01:12:45;101992.31;;;7.71;68.15
76853;BME280;65825;52.232;10.566;2024-01-30T01:15:10;101988.78;;;7.90;66.24
76853;BME280;65825;52.232;10.566;2024-01-30T01:17:36;101993.16;;;7.70;66.98
76853;BME280;65825;52.232;10.566;2024-01-30T01:20:02;101993.19;;;7.61;66.84
76853;BME280;65825;52.232;10.566;2024-01-30T01:22:28;101993.16;;;7.52;68.03
76853;BME280;65825;52.232;10.566;2024-01-30T01:24:53;101996.69;;;7.82;66.61
76853;BME280;65825;52.232;10.566;2024-01-30T01:27:18;101993.19;;;7.89;65.07
76853;BME280;65825;52.232;10.566;2024-01-30T01:29:43;101990.53;;;7.71;66.23
76853;BME280;65825;52.232;10.566;2024-01-30T01:32:09;101995.81;;;7.76;65.69
76853;BME280;65825;52.232;10.566;2024-01-30T01:34:34;101989.69;;;7.71;66.85
76853;BME280;65825;52.232;10.566;2024-01-30T01:36:59;101984.41;;;7.75;65.73
76853;BME280;65825;52.232;10.566;2024-01-30T01:39:25;101989.63;;;7.44;66.98
76853;BME280;65825;52.232;10.566;2024-01-30T01:41:50;101993.97;;;7.27;69.59
76853;BME280;65825;52.232;10.566;2024-01-30T01:44:17;101984.41;;;7.56;68.62
76853;BME280;65825;52.232;10.566;2024-01-30T01:46:43;101985.28;;;7.58;68.87
76853;BME280;65825;52.232;10.566;2024-01-30T01:49:08;101985.28;;;7.65;68.77
76853;BME280;65825;52.232;10.566;2024-01-30T01:51:36;101976.53;;;7.74;68.13
76853;BME280;65825;52.232;10.566;2024-01-30T01:54:03;101977.38;;;7.50;68.61
76853;BME280;65825;52.232;10.566;2024-01-30T01:56:29;101983.53;;;7.84;67.99
76853;BME280;65825;52.232;10.566;2024-01-30T01:58:59;101954.66;;;7.81;68.31
76853;BME280;65825;52.232;10.566;2024-01-30T02:01:25;101971.25;;;7.86;68.27
76853;BME280;65825;52.232;10.566;2024-01-30T02:03:51;101973.03;;;7.78;68.58
76853;BME280;65825;52.232;10.566;2024-01-30T02:06:16;101971.25;;;7.65;69.90
76853;BME280;65825;52.232;10.566;2024-01-30T02:08:42;101971.28;;;7.92;69.40
76853;BME280;65825;52.232;10.566;2024-01-30T02:11:08;101972.13;;;7.83;69.50
76853;BME280;65825;52.232;10.566;2024-01-30T02:13:35;101968.63;;;8.04;68.88
76853;BME280;65825;52.232;10.566;2024-01-30T02:16:00;101964.25;;;8.00;68.43
76853;BME280;65825;52.232;10.566;2024-01-30T02:18:26;101966.88;;;8.07;68.64
76853;BME280;65825;52.232;10.566;2024-01-30T02:20:53;101955.50;;;8.05;68.53
76853;BME280;65825;52.232;10.566;2024-01-30T02:23:19;101955.47;;;8.11;68.66
76853;BME280;65825;52.232;10.566;2024-01-30T02:25:44;101944.06;;;8.12;69.28
76853;BME280;65825;52.232;10.566;2024-01-30T02:28:11;101936.16;;;8.35;68.30
76853;BME280;65825;52.232;10.566;2024-01-30T02:30:37;101941.38;;;8.51;66.64
76853;BME280;65825;52.232;10.566;2024-01-30T02:33:02;101947.59;;;8.28;65.41
76853;BME280;65825;52.232;10.566;2024-01-30T02:35:27;101955.50;;;7.72;67.03
76853;BME280;65825;52.232;10.566;2024-01-30T02:37:53;101944.97;;;7.44;66.65
76853;BME280;65825;52.232;10.566;2024-01-30T02:40:18;101940.59;;;7.40;65.27
76853;BME280;65825;52.232;10.566;2024-01-30T02:42:43;101938.84;;;7.28;64.30
76853;BME280;65825;52.232;10.566;2024-01-30T02:45:09;101940.47;;;6.86;65.45
76853;BME280;65825;52.232;10.566;2024-01-30T02:47:35;101946.31;;;6.26;67.26
76853;BME280;65825;52.232;10.566;2024-01-30T02:50:00;101943.66;;;6.16;68.16
76853;BME280;65825;52.232;10.566;2024-01-30T02:52:25;101935.88;;;6.35;66.86
76853;BME280;65825;52.232;10.566;2024-01-30T02:54:50;101944.50;;;6.12;66.82
76853;BME280;65825;52.232;10.566;2024-01-30T02:57:15;101934.03;;;6.13;68.35
76853;BME280;65825;52.232;10.566;2024-01-30T02:59:41;101942.03;;;6.39;66.96
76853;BME280;65825;52.232;10.566;2024-01-30T03:02:06;101940.88;;;5.93;69.46
76853;BME280;65825;52.232;10.566;2024-01-30T03:04:32;101941.88;;;6.16;68.36
76853;BME280;65825;52.232;10.566;2024-01-30T03:06:57;101946.28;;;6.19;66.38
76853;BME280;65825;52.232;10.566;2024-01-30T03:09:23;101901.66;;;6.08;66.16
76853;BME280;65825;52.232;10.566;2024-01-30T03:11:48;101939.22;;;6.06;67.98
76853;BME280;65825;52.232;10.566;2024-01-30T03:14:13;101932.16;;;5.97;69.14
76853;BME280;65825;52.232;10.566;2024-01-30T03:16:38;101936.59;;;6.10;71.52
76853;BME280;65825;52.232;10.566;2024-01-30T03:19:06;101942.78;;;6.20;69.79
76853;BME280;65825;52.232;10.566;2024-01-30T03:21:32;101928.06;;;6.47;69.22
76853;BME280;65825;52.232;10.566;2024-01-30T03:23:58;101929.91;;;6.65;69.37
76853;BME280;65825;52.232;10.566;2024-01-30T03:26:23;101926.44;;;6.76;69.05
76853;BME280;65825;52.232;10.566;2024-01-30T03:28:48;101920.28;;;6.70;66.91
76853;BME280;65825;52.232;10.566;2024-01-30T03:31:15;101928.91;;;6.34;69.06
76853;BME280;65825;52.232;10.566;2024-01-30T03:33:40;101928.00;;;6.29;72.70
76853;BME280;65825;52.232;10.566;2024-01-30T03:36:06;101927.22;;;6.53;72.48
76853;BME280;65825;52.232;10.566;2024-01-30T03:38:31;101917.63;;;6.56;72.70
76853;BME280;65825;52.232;10.566;2024-01-30T03:40:58;101927.25;;;6.63;73.12
76853;BME280;65825;52.232;10.566;2024-01-30T03:43:24;101914.19;;;6.78;72.89
76853;BME280;65825;52.232;10.566;2024-01-30T03:45:49;101920.28;;;6.70;73.05
76853;BME280;65825;52.232;10.566;2024-01-30T03:48:14;101919.50;;;7.05;71.97
76853;BME280;65825;52.232;10.566;2024-01-30T03:50:39;101918.59;;;6.88;73.07
76853;BME280;65825;52.232;10.566;2024-01-30T03:53:05;101921.31;;;7.24;71.88
76853;BME280;65825;52.232;10.566;2024-01-30T03:55:30;101915.16;;;7.24;71.38
76853;BME280;65825;52.232;10.566;2024-01-30T03:57:55;101921.31;;;7.20;72.06
76853;BME280;65825;52.232;10.566;2024-01-30T04:00:20;101919.56;;;7.29;72.36
76853;BME280;65825;52.232;10.566;2024-01-30T04:02:45;101910.84;;;7.50;72.10
76853;BME280;65825;52.232;10.566;2024-01-30T04:05:11;101904.69;;;7.48;72.14
76853;BME280;65825;52.232;10.566;2024-01-30T04:07:36;101910.84;;;7.62;71.87
76853;BME280;65825;52.232;10.566;2024-01-30T04:10:02;101905.56;;;7.66;71.17
76853;BME280;65825;52.232;10.566;2024-01-30T04:12:30;101910.81;;;7.59;71.75
76853;BME280;65825;52.232;10.566;2024-01-30T04:14:56;101898.56;;;7.55;72.39
76853;BME280;65825;52.232;10.566;2024-01-30T04:17:21;101893.31;;;7.73;72.68
76853;BME280;65825;52.232;10.566;2024-01-30T04:19:46;101897.66;;;7.89;71.74
76853;BME280;65825;52.232;10.566;2024-01-30T04:22:11;101901.19;;;7.67;72.14
76853;BME280;65825;52.232;10.566;2024-01-30T04:24:37;101894.16;;;7.82;71.18
76853;BME280;65825;52.232;10.566;2024-01-30T04:27:02;101891.56;;;7.54;71.70
76853;BME280;65825;52.232;10.566;2024-01-30T04:29:27;101897.69;;;7.69;71.86
76853;BME280;65825;52.232;10.566;2024-01-30T04:31:52;101902.06;;;7.87;71.13
76853;BME280;65825;52.232;10.566;2024-01-30T04:34:18;101898.56;;;7.73;71.81
76853;BME280;65825;52.232;10.566;2024-01-30T04:36:44;101892.41;;;7.57;72.21
76853;BME280;65825;52.232;10.566;2024-01-30T04:39:10;101878.44;;;7.52;72.23
76853;BME280;65825;52.232;10.566;2024-01-30T04:41:35;101893.31;;;7.68;71.70
76853;BME280;65825;52.232;10.566;2024-01-30T04:44:01;101895.94;;;7.76;71.58
76853;BME280;65825;52.232;10.566;2024-01-30T04:46:26;101904.69;;;7.87;71.29
76853;BME280;65825;52.232;10.566;2024-01-30T04:48:51;101902.03;;;7.82;71.80
76853;BME280;65825;52.232;10.566;2024-01-30T04:51:16;101896.81;;;7.79;71.02
76853;BME280;65825;52.232;10.566;2024-01-30T04:53:42;101902.91;;;7.80;71.23
76853;BME280;65825;52.232;10.566;2024-01-30T04:56:07;101899.44;;;7.87;71.29
76853;BME280;65825;52.232;10.566;2024-01-30T04:58:32;101899.41;;;7.99;70.59
76853;BME280;65825;52.232;10.566;2024-01-30T05:00:57;101901.19;;;7.52;72.17
76853;BME280;65825;52.232;10.566;2024-01-30T05:03:22;101899.41;;;7.99;71.08
76853;BME280;65825;52.232;10.566;2024-01-30T05:05:49;101898.53;;;7.89;71.12
76853;BME280;65825;52.232;10.566;2024-01-30T05:08:14;101902.03;;;7.97;70.10
76853;BME280;65825;52.232;10.566;2024-01-30T05:10:39;101897.63;;;8.01;70.59
76853;BME280;65825;52.232;10.566;2024-01-30T05:13:05;101897.66;;;7.95;70.03
76853;BME280;65825;52.232;10.566;2024-01-30T05:15:30;101891.50;;;8.00;69.18
76853;BME280;65825;52.232;10.566;2024-01-30T05:17:55;101891.47;;;8.03;69.36
76853;BME280;65825;52.232;10.566;2024-01-30T05:20:20;101903.81;;;7.76;70.93
76853;BME280;65825;52.232;10.566;2024-01-30T05:22:46;101904.69;;;7.69;70.97
76853;BME280;65825;52.232;10.566;2024-01-30T05:25:12;101903.81;;;7.38;72.12
76853;BME280;65825;52.232;10.566;2024-01-30T05:27:38;101895.06;;;7.45;71.88
76853;BME280;65825;52.232;10.566;2024-01-30T05:30:05;101899.44;;;7.79;70.68
76853;BME280;65825;52.232;10.566;2024-01-30T05:32:31;101888.94;;;7.81;70.47
76853;BME280;65825;52.232;10.566;2024-01-30T05:34:56;101887.19;;;7.60;70.42
76853;BME280;65825;52.232;10.566;2024-01-30T05:37:21;101889.78;;;7.74;70.70
76853;BME280;65825;52.232;10.566;2024-01-30T05:39:47;101882.78;;;7.79;70.14
76853;BME280;65825;52.232;10.566;2024-01-30T05:42:12;101883.69;;;7.58;71.38
76853;BME280;65825;52.232;10.566;2024-01-30T05:44:37;101893.25;;;7.92;70.55
76853;BME280;65825;52.232;10.566;2024-01-30T05:47:03;101899.41;;;7.90;70.09
76853;BME280;65825;52.232;10.566;2024-01-30T05:49:28;101889.78;;;7.80;70.52
76853;BME280;65825;52.232;10.566;2024-01-30T05:51:53;101889.81;;;7.71;69.77
76853;BME280;65825;52.232;10.566;2024-01-30T05:54:19;101899.44;;;7.79;69.91
76853;BME280;65825;52.232;10.566;2024-01-30T05:56:44;101897.66;;;7.98;69.19
76853;BME280;65825;52.232;10.566;2024-01-30T05:59:09;101889.75;;;8.01;69.05
76853;BME280;65825;52.232;10.566;2024-01-30T06:01:34;101874.00;;;7.92;68.20
76853;BME280;65825;52.232;10.566;2024-01-30T06:04:01;101888.94;;;7.66;69.50
76853;BME280;65825;52.232;10.566;2024-01-30T06:06:26;101890.66;;;7.77;68.98
76853;BME280;65825;52.232;10.566;2024-01-30T06:08:51;101888.06;;;7.68;68.96
76853;BME280;65825;52.232;10.566;2024-01-30T06:11:17;101880.16;;;7.55;70.46
76853;BME280;65825;52.232;10.566;2024-01-30T06:13:42;101886.31;;;7.42;70.34
76853;BME280;65825;52.232;10.566;2024-01-30T06:16:10;101892.44;;;7.66;70.91
76853;BME280;65825;52.232;10.566;2024-01-30T06:18:36;101893.31;;;7.82;70.15
76853;BME280;65825;52.232;10.566;2024-01-30T06:21:01;101885.38;;;7.91;69.02
76853;BME280;65825;52.232;10.566;2024-01-30T06:23:27;101886.31;;;7.73;69.21
76853;BME280;65825;52.232;10.566;2024-01-30T06:25:52;101874.06;;;7.42;70.22
76853;BME280;65825;52.232;10.566;2024-01-30T06:28:17;101876.66;;;7.66;70.82
76853;BME280;65825;52.232;10.566;2024-01-30T06:30:42;101872.31;;;7.46;70.96
76853;BME280;65825;52.232;10.566;2024-01-30T06:33:08;101881.03;;;7.48;71.14
76853;BME280;65825;52.232;10.566;2024-01-30T06:35:36;101881.03;;;7.87;72.60
76853;BME280;65825;52.232;10.566;2024-01-30T06:38:04;101880.16;;;7.64;71.46
76853;BME280;65825;52.232;10.566;2024-01-30T06:40:30;101876.66;;;7.44;71.85
76853;BME280;65825;52.232;10.566;2024-01-30T06:42:55;101880.16;;;7.34;72.18
76853;BME280;65825;52.232;10.566;2024-01-30T06:45:20;101880.16;;;7.34;72.80
76853;BME280;65825;52.232;10.566;2024-01-30T06:47:46;101874.91;;;7.59;71.69
76853;BME280;65825;52.232;10.566;2024-01-30T06:50:11;101878.44;;;7.49;72.39
76853;BME280;65825;52.232;10.566;2024-01-30T06:52:36;101873.16;;;7.46;72.11
76853;BME280;65825;52.232;10.566;2024-01-30T06:55:01;101881.91;;;7.65;71.84
76853;BME280;65825;52.232;10.566;2024-01-30T06:57:28;101871.38;;;7.72;72.44
76853;BME280;65825;52.232;10.566;2024-01-30T06:59:54;101879.28;;;7.69;71.17
76853;BME280;65825;52.232;10.566;2024-01-30T07:02:19;101877.53;;;7.28;72.71
76853;BME280;65825;52.232;10.566;2024-01-30T07:04:44;101874.00;;;7.72;71.15
76853;BME280;65825;52.232;10.566;2024-01-30T07:07:10;101867.91;;;7.54;71.38
76853;BME280;65825;52.232;10.566;2024-01-30T07:09:37;101867.03;;;7.37;72.26
76853;BME280;65825;52.232;10.566;2024-01-30T07:12:03;101870.53;;;7.54;71.45
76853;BME280;65825;52.232;10.566;2024-01-30T07:14:28;101872.31;;;7.53;71.06
76853;BME280;65825;52.232;10.566;2024-01-30T07:16:53;101870.53;;;7.31;71.97
76853;BME280;65825;52.232;10.566;2024-01-30T07:19:19;101865.31;;;7.30;72.25
76853;BME280;65825;52.232;10.566;2024-01-30T07:21:44;101866.19;;;7.35;72.69
76853;BME280;65825;52.232;10.566;2024-01-30T07:24:09;101873.16;;;7.42;72.51
76853;BME280;65825;52.232;10.566;2024-01-30T07:26:34;101868.78;;;7.77;71.30
76853;BME280;65825;52.232;10.566;2024-01-30T07:29:01;101868.78;;;7.63;71.70
76853;BME280;65825;52.232;10.566;2024-01-30T07:31:26;101868.81;;;7.50;71.86
76853;BME280;65825;52.232;10.566;2024-01-30T07:33:51;101867.94;;;7.51;71.72
76853;BME280;65825;52.232;10.566;2024-01-30T07:36:16;101863.50;;;7.81;70.37
76853;BME280;65825;52.232;10.566;2024-01-30T07:38:42;101863.53;;;7.45;71.49
76853;BME280;65825;52.232;10.566;2024-01-30T07:41:07;101867.03;;;7.76;71.17
76853;BME280;65825;52.232;10.566;2024-01-30T07:43:33;101881.03;;;7.75;70.98
76853;BME280;65825;52.232;10.566;2024-01-30T07:45:58;101874.94;;;7.46;71.33
76853;BME280;65825;52.232;10.566;2024-01-30T07:48:24;101870.53;;;7.73;70.72
76853;BME280;65825;52.232;10.566;2024-01-30T07:50:50;101879.25;;;7.80;71.12
76853;BME280;65825;52.232;10.566;2024-01-30T07:53:15;101871.31;;;8.10;69.91
76853;BME280;65825;52.232;10.566;2024-01-30T07:55:40;101873.88;;;8.37;68.98
76853;BME280;65825;52.232;10.566;2024-01-30T07:58:06;101866.00;;;8.38;68.61
76853;BME280;65825;52.232;10.566;2024-01-30T08:00:31;101871.41;;;7.77;70.43
76853;BME280;65825;52.232;10.566;2024-01-30T08:02:57;101868.69;;;8.01;69.84
76853;BME280;65825;52.232;10.566;2024-01-30T08:05:22;101880.94;;;8.26;69.47
76853;BME280;65825;52.232;10.566;2024-01-30T08:07:49;101876.44;;;8.52;68.38
76853;BME280;65825;52.232;10.566;2024-01-30T08:10:14;101875.47;;;8.75;67.20
76853;BME280;65825;52.232;10.566;2024-01-30T08:12:41;101870.19;;;8.75;67.45
76853;BME280;65825;52.232;10.566;2024-01-30T08:15:07;101868.38;;;8.89;67.25
76853;BME280;65825;52.232;10.566;2024-01-30T08:17:32;101868.59;;;8.49;68.31
76853;BME280;65825;52.232;10.566;2024-01-30T08:19:58;101872.09;;;8.46;68.58
76853;BME280;65825;52.232;10.566;2024-01-30T08:22:23;101866.81;;;8.54;68.13
76853;BME280;65825;52.232;10.566;2024-01-30T08:24:48;101861.63;;;8.37;69.47
76853;BME280;65825;52.232;10.566;2024-01-30T08:27:14;101861.56;;;8.49;69.44
76853;BME280;65825;52.232;10.566;2024-01-30T08:29:39;101857.97;;;8.71;68.76
76853;BME280;65825;52.232;10.566;2024-01-30T08:32:08;101858.81;;;8.72;68.57
76853;BME280;65825;52.232;10.566;2024-01-30T08:34:33;101862.25;;;8.86;68.48
76853;BME280;65825;52.232;10.566;2024-01-30T08:36:58;101863.84;;;9.11;68.52
76853;BME280;65825;52.232;10.566;2024-01-30T08:39:24;101866.25;;;9.36;67.60
76853;BME280;65825;52.232;10.566;2024-01-30T08:41:49;101860.94;;;9.42;66.57
76853;BME280;65825;52.232;10.566;2024-01-30T08:44:15;101869.72;;;9.44;66.16
76853;BME280;65825;52.232;10.566;2024-01-30T08:46:40;101859.78;;;9.75;66.29
76853;BME280;65825;52.232;10.566;2024-01-30T08:49:06;101857.97;;;9.77;66.08
76853;BME280;65825;52.232;10.566;2024-01-30T08:51:31;101862.31;;;9.85;66.03
76853;BME280;65825;52.232;10.566;2024-01-30T08:53:56;101854.94;;;10.19;64.52
76853;BME280;65825;52.232;10.566;2024-01-30T08:56:22;101855.88;;;10.15;64.51
76853;BME280;65825;52.232;10.566;2024-01-30T08:58:47;101863.47;;;10.40;64.25
76853;BME280;65825;52.232;10.566;2024-01-30T09:01:12;101864.69;;;10.12;64.66
76853;BME280;65825;52.232;10.566;2024-01-30T09:03:37;101862.97;;;10.07;64.73
76853;BME280;65825;52.232;10.566;2024-01-30T09:06:10;101862.16;;;9.99;65.35
76853;BME280;65825;52.232;10.566;2024-01-30T09:08:36;101851.56;;;10.06;65.10
76853;BME280;65825;52.232;10.566;2024-01-30T09:11:09;101851.44;;;10.17;64.68
76853;BME280;65825;52.232;10.566;2024-01-30T09:13:34;101856.84;;;10.06;65.24
76853;BME280;65825;52.232;10.566;2024-01-30T09:15:59;101854.25;;;9.99;66.04
76853;BME280;65825;52.232;10.566;2024-01-30T09:18:25;101845.41;;;10.74;65.39
76853;BME280;65825;52.232;10.566;2024-01-30T09:20:50;101853.84;;;11.00;63.83
76853;BME280;65825;52.232;10.566;2024-01-30T09:23:15;101847.66;;;11.01;63.10
76853;BME280;65825;52.232;10.566;2024-01-30T09:25:42;101849.78;;;11.34;61.84
76853;BME280;65825;52.232;10.566;2024-01-30T09:28:07;101848.22;;;11.21;62.28
76853;BME280;65825;52.232;10.566;2024-01-30T09:30:32;101851.25;;;10.97;62.98
76853;BME280;65825;52.232;10.566;2024-01-30T09:32:58;101857.16;;;11.12;61.79
76853;BME280;65825;52.232;10.566;2024-01-30T09:35:23;101849.09;;;11.21;61.73
76853;BME280;65825;52.232;10.566;2024-01-30T09:37:48;101845.72;;;10.51;62.92
76853;BME280;65825;52.232;10.566;2024-01-30T09:40:14;101844.84;;;11.13;62.60
76853;BME280;65825;52.232;10.566;2024-01-30T09:42:46;101843.25;;;11.01;62.08
76853;BME280;65825;52.232;10.566;2024-01-30T09:45:13;101845.75;;;11.65;61.06
76853;BME280;65825;52.232;10.566;2024-01-30T09:47:43;101844.44;;;10.81;62.17
76853;BME280;65825;52.232;10.566;2024-01-30T09:50:10;101845.75;;;11.12;61.61
76853;BME280;65825;52.232;10.566;2024-01-30T09:52:35;101845.34;;;11.36;61.42
76853;BME280;65825;52.232;10.566;2024-01-30T09:55:01;101840.56;;;11.57;60.50
76853;BME280;65825;52.232;10.566;2024-01-30T09:57:35;101847.88;;;11.42;61.71
76853;BME280;65825;52.232;10.566;2024-01-30T10:00:00;101842.69;;;11.36;61.05
76853;BME280;65825;52.232;10.566;2024-01-30T10:02:26;101834.66;;;11.93;59.61
76853;BME280;65825;52.232;10.566;2024-01-30T10:04:52;101839.25;;;12.26;59.52
76853;BME280;65825;52.232;10.566;2024-01-30T10:07:18;101825.84;;;11.91;59.86
76853;BME280;65825;52.232;10.566;2024-01-30T10:09:44;101835.16;;;12.12;59.48
76853;BME280;65825;52.232;10.566;2024-01-30T10:12:10;101831.84;;;12.01;58.86
76853;BME280;65825;52.232;10.566;2024-01-30T10:14:42;101825.66;;;12.02;59.45
76853;BME280;65825;52.232;10.566;2024-01-30T10:17:11;101826.69;;;12.77;58.45
76853;BME280;65825;52.232;10.566;2024-01-30T10:19:41;101825.53;;;12.50;58.29
76853;BME280;65825;52.232;10.566;2024-01-30T10:22:07;101825.16;;;13.06;56.67
76853;BME280;65825;52.232;10.566;2024-01-30T10:24:36;101816.75;;;12.86;57.21
76853;BME280;65825;52.232;10.566;2024-01-30T10:27:02;101819.31;;;12.51;58.56
76853;BME280;65825;52.232;10.566;2024-01-30T10:29:28;101813.47;;;12.36;58.19
76853;BME280;65825;52.232;10.566;2024-01-30T10:32:04;101819.94;;;12.62;57.55
76853;BME280;65825;52.232;10.566;2024-01-30T10:34:30;101821.94;;;12.91;56.66
76853;BME280;65825;52.232;10.566;2024-01-30T10:37:11;101820.09;;;12.96;56.60
76853;BME280;65825;52.232;10.566;2024-01-30T10:39:45;101815.19;;;13.16;56.56
76853;BME280;65825;52.232;10.566;2024-01-30T10:42:17;101809.28;;;13.73;55.76
76853;BME280;65825;52.232;10.566;2024-01-30T10:45:08;101812.19;;;13.29;56.56
76853;BME280;65825;52.232;10.566;2024-01-30T10:47:35;101812.78;;;13.40;56.02
76853;BME280;65825;52.232;10.566;2024-01-30T10:50:04;101808.38;;;13.06;56.83
76853;BME280;65825;52.232;10.566;2024-01-30T10:52:31;101815.03;;;13.22;57.44
76853;BME280;65825;52.232;10.566;2024-01-30T10:54:58;101814.03;;;13.27;57.11
76853;BME280;65825;52.232;10.566;2024-01-30T10:57:24;101819.63;;;13.15;57.50
76853;BME280;65825;52.232;10.566;2024-01-30T10:59:51;101818.72;;;13.16;57.79
76853;BME280;65825;52.232;10.566;2024-01-30T11:02:18;101814.13;;;12.85;58.44
76853;BME280;65825;52.232;10.566;2024-01-30T11:04:45;101811.59;;;13.18;57.54
76853;BME280;65825;52.232;10.566;2024-01-30T11:07:18;101810.09;;;12.69;58.72
76853;BME280;65825;52.232;10.566;2024-01-30T11:10:02;101807.78;;;12.92;58.39
76853;BME280;65825;52.232;10.566;2024-01-30T11:12:29;101807.53;;;13.39;56.77
76853;BME280;65825;52.232;10.566;2024-01-30T11:15:02;101806.66;;;13.03;57.74
76853;BME280;65825;52.232;10.566;2024-01-30T11:18:00;101792.47;;;13.41;57.64
76853;BME280;65825;52.232;10.566;2024-01-30T11:20:30;101787.75;;;13.17;58.42
76853;BME280;65825;52.232;10.566;2024-01-30T11:23:01;101785.16;;;13.49;57.84
76853;BME280;65825;52.232;10.566;2024-01-30T11:25:31;101775.22;;;13.89;56.57
76853;BME280;65825;52.232;10.566;2024-01-30T11:27:57;101781.28;;;13.62;56.76
76853;BME280;65825;52.232;10.566;2024-01-30T11:33:30;101771.22;;;13.42;57.31
76853;BME280;65825;52.232;10.566;2024-01-30T11:35:57;101772.66;;;13.54;57.02
76853;BME280;65825;52.232;10.566;2024-01-30T11:38:26;101777.94;;;13.54;56.65
76853;BME280;65825;52.232;10.566;2024-01-30T11:40:54;101770.47;;;13.37;56.82
76853;BME280;65825;52.232;10.566;2024-01-30T11:43:19;101771.47;;;13.65;56.25
76853;BME280;65825;52.232;10.566;2024-01-30T11:45:45;101768.28;;;13.51;56.48
76853;BME280;65825;52.232;10.566;2024-01-30T11:48:13;101766.22;;;13.62;56.26
76853;BME280;65825;52.232;10.566;2024-01-30T11:50:39;101768.97;;;13.59;57.14
76853;BME280;65825;52.232;10.566;2024-01-30T11:53:06;101772.28;;;13.67;56.32
76853;BME280;65825;52.232;10.566;2024-01-30T11:55:32;101769.69;;;13.66;56.71
76853;BME280;65825;52.232;10.566;2024-01-30T11:57:58;101756.81;;;13.51;56.88
76853;BME280;65825;52.232;10.566;2024-01-30T12:00:24;101752.91;;;13.64;56.60
76853;BME280;65825;52.232;10.566;2024-01-30T12:02:50;101758.53;;;13.53;57.03
76853;BME280;65825;52.232;10.566;2024-01-30T12:05:16;101753.09;;;13.24;56.46
76853;BME280;65825;52.232;10.566;2024-01-30T12:07:44;101753.28;;;13.50;56.83
76853;BME280;65825;52.232;10.566;2024-01-30T12:10:09;101751.25;;;13.28;57.43
76853;BME280;65825;52.232;10.566;2024-01-30T12:12:36;101754.97;;;13.54;56.41
76853;BME280;65825;52.232;10.566;2024-01-30T12:15:02;101762.78;;;13.59;56.34
76853;BME280;65825;52.232;10.566;2024-01-30T12:17:32;101759.75;;;13.40;56.66
76853;BME280;65825;52.232;10.566;2024-01-30T12:20:05;101764.84;;;13.48;56.90
76853;BME280;65825;52.232;10.566;2024-01-30T12:22:36;101764.03;;;13.46;56.87
76853;BME280;65825;52.232;10.566;2024-01-30T12:25:02;101764.47;;;13.61;56.93
76853;BME280;65825;52.232;10.566;2024-01-30T12:27:27;101760.84;;;13.65;56.61
76853;BME280;65825;52.232;10.566;2024-01-30T12:29:57;101757.00;;;13.77;56.51
76853;BME280;65825;52.232;10.566;2024-01-30T12:32:23;101756.44;;;13.64;56.17
76853;BME280;65825;52.232;10.566;2024-01-30T12:34:49;101752.84;;;13.67;56.87
76853;BME280;65825;52.232;10.566;2024-01-30T12:37:15;101756.84;;;13.81;56.74
76853;BME280;65825;52.232;10.566;2024-01-30T12:39:45;101754.47;;;14.03;55.87
76853;BME280;65825;52.232;10.566;2024-01-30T12:42:10;101742.91;;;14.05;55.70
76853;BME280;65825;52.232;10.566;2024-01-30T12:44:36;101747.28;;;14.06;55.65
76853;BME280;65825;52.232;10.566;2024-01-30T12:47:04;101741.81;;;14.11;55.37